Time;durP1;ratioP1;P1;durP2;ratioP2;P2;SDS_P1;SDS_P2;PMS_P1;PMS_P2;Temp;Humidity;BMP_temperature;BMP_pressure;BME280_temperature;BME280_humidity;BME280_pressure;Samples;Min_cycle;Max_cycle;Signal;HPM_P1;HPM_P2
2022/05/05 00:01:13;;;;;;;2.05;1.85;;;10.50;99.90;;;;;;5019483;28;20089;-59
2022/05/05 00:03:40;;;;;;;1.40;1.30;;;10.50;99.90;;;;;;5020110;28;20089;-59
2022/05/05 00:06:08;;;;;;;1.58;1.40;;;10.40;99.90;;;;;;5020656;28;20057;-58
2022/05/05 00:08:35;;;;;;;1.98;1.77;;;10.40;99.90;;;;;;5023724;28;20038;-59
2022/05/05 00:16:32;;;;;;;2.63;2.40;;;10.40;99.90;;;;;;5028191;28;20073;-59
2022/05/05 00:19:01;;;;;;;2.08;1.88;;;10.40;99.90;;;;;;5026109;28;20042;-59
2022/05/05 00:21:27;;;;;;;2.28;2.08;;;10.30;99.90;;;;;;5027465;28;20485;-59
2022/05/05 00:23:54;;;;;;;2.42;2.15;;;10.30;99.90;;;;;;5027787;28;20525;-59
2022/05/05 00:26:21;;;;;;;1.90;1.70;;;10.30;99.90;;;;;;5027783;28;20053;-59
2022/05/05 00:28:48;;;;;;;1.52;1.42;;;10.30;99.90;;;;;;5027764;28;20077;-59
2022/05/05 00:31:14;;;;;;;1.70;1.60;;;10.30;99.90;;;;;;5027972;28;20075;-59
2022/05/05 00:33:41;;;;;;;2.00;1.70;;;10.30;99.90;;;;;;5017271;28;20055;-59
2022/05/05 00:36:08;;;;;;;1.40;1.30;;;10.20;99.90;;;;;;5027459;28;20049;-58
2022/05/05 00:38:35;;;;;;;2.00;1.80;;;10.20;99.90;;;;;;5027587;28;20441;-59
2022/05/05 00:41:01;;;;;;;1.50;1.33;;;10.20;99.90;;;;;;5027704;28;20045;-59
2022/05/05 00:43:29;;;;;;;1.50;1.38;;;10.20;99.90;;;;;;5008701;28;20064;-59
2022/05/05 00:45:56;;;;;;;1.48;1.38;;;10.10;99.90;;;;;;4976525;28;20056;-59
2022/05/05 00:48:26;;;;;;;1.58;1.40;;;10.10;99.90;;;;;;5008832;28;20046;-59
2022/05/05 00:50:53;;;;;;;1.83;1.58;;;10.00;99.90;;;;;;5019701;28;20049;-59
2022/05/05 00:53:20;;;;;;;1.65;1.50;;;10.00;99.90;;;;;;5016387;28;20073;-56
2022/05/05 00:55:47;;;;;;;1.60;1.30;;;10.00;99.90;;;;;;5027661;28;20128;-58
2022/05/05 00:58:13;;;;;;;1.75;1.50;;;10.00;99.90;;;;;;5041804;28;20168;-58
2022/05/05 01:00:40;;;;;;;1.90;1.48;;;9.90;99.90;;;;;;5025681;28;20092;-57
2022/05/05 01:03:08;;;;;;;1.30;1.20;;;9.70;99.90;;;;;;4992808;28;20140;-57
2022/05/05 01:05:37;;;;;;;1.58;1.33;;;9.70;99.90;;;;;;5004499;28;20050;-58
2022/05/05 01:08:04;;;;;;;1.88;1.67;;;9.60;99.90;;;;;;4991197;28;20080;-60
2022/05/05 01:10:31;;;;;;;1.50;1.40;;;9.60;99.90;;;;;;5015811;28;20137;-57
2022/05/05 01:13:01;;;;;;;1.90;1.50;;;9.50;99.90;;;;;;5026543;28;20081;-57
2022/05/05 01:15:32;;;;;;;1.80;1.60;;;9.50;99.90;;;;;;5027069;28;20080;-57
2022/05/05 01:17:58;;;;;;;2.05;1.52;;;9.50;99.90;;;;;;5027134;28;20536;-57
2022/05/05 01:20:25;;;;;;;1.83;1.50;;;9.40;99.90;;;;;;5025602;28;20485;-58
2022/05/05 01:22:52;;;;;;;1.77;1.52;;;9.40;99.90;;;;;;5027068;28;20128;-58
2022/05/05 01:28:11;;;;;;;1.58;1.40;;;9.30;99.90;;;;;;5026691;28;20148;-58
2022/05/05 01:30:39;;;;;;;2.25;1.80;;;9.20;99.90;;;;;;5016758;28;20124;-58
2022/05/05 01:33:10;;;;;;;1.75;1.60;;;9.10;99.90;;;;;;5009566;28;20133;-59
2022/05/05 01:35:38;;;;;;;1.38;1.25;;;9.10;99.90;;;;;;5005868;28;20076;-58
2022/05/05 01:38:09;;;;;;;1.70;1.50;;;9.10;99.90;;;;;;5008153;28;20141;-58
2022/05/05 01:40:36;;;;;;;1.95;1.70;;;9.00;99.90;;;;;;5018474;28;20213;-58
2022/05/05 01:43:06;;;;;;;1.90;1.70;;;9.00;99.90;;;;;;5024991;28;20077;-59
2022/05/05 01:45:33;;;;;;;1.55;1.42;;;8.90;99.90;;;;;;5026434;28;20640;-60
2022/05/05 01:48:00;;;;;;;2.00;1.65;;;8.90;99.90;;;;;;5014918;28;20050;-58
2022/05/05 01:50:26;;;;;;;1.80;1.50;;;8.80;99.90;;;;;;5013572;28;20127;-57
2022/05/05 01:52:53;;;;;;;1.85;1.58;;;8.80;99.90;;;;;;5020420;28;20463;-58
2022/05/05 01:55:21;;;;;;;2.03;1.75;;;8.80;99.90;;;;;;5007910;28;20074;-58
2022/05/05 01:57:48;;;;;;;1.90;1.67;;;8.70;99.90;;;;;;5013593;28;20091;-57
2022/05/05 02:00:15;;;;;;;1.88;1.50;;;8.70;99.90;;;;;;5024405;28;20140;-57
2022/05/05 02:02:43;;;;;;;1.80;1.52;;;8.60;99.90;;;;;;5026880;28;20141;-58
2022/05/05 02:05:10;;;;;;;1.65;1.38;;;8.60;99.90;;;;;;5007856;28;20600;-57
2022/05/05 02:07:37;;;;;;;2.00;1.70;;;8.60;99.90;;;;;;5007908;28;20583;-58
2022/05/05 02:10:05;;;;;;;1.80;1.48;;;8.60;99.90;;;;;;5014363;28;20141;-58
2022/05/05 02:12:32;;;;;;;1.63;1.38;;;8.50;99.90;;;;;;5025927;28;20132;-58
2022/05/05 02:14:59;;;;;;;1.70;1.60;;;8.50;99.90;;;;;;5025988;28;20059;-58
2022/05/05 02:17:25;;;;;;;1.88;1.60;;;8.50;99.90;;;;;;5026396;28;20103;-58
2022/05/05 02:19:52;;;;;;;2.20;1.98;;;8.50;99.90;;;;;;5025119;28;20535;-58
2022/05/05 02:22:19;;;;;;;1.75;1.50;;;8.40;99.90;;;;;;5026151;28;20314;-57
2022/05/05 02:24:46;;;;;;;1.67;1.45;;;8.40;99.90;;;;;;5026207;28;20499;-57
2022/05/05 02:27:13;;;;;;;1.80;1.55;;;8.40;99.90;;;;;;5025512;28;20141;-60
2022/05/05 02:29:41;;;;;;;1.83;1.63;;;8.30;99.90;;;;;;5025912;28;20411;-58
2022/05/05 02:32:08;;;;;;;2.40;2.03;;;8.20;99.90;;;;;;5026330;28;20170;-58
2022/05/05 02:34:35;;;;;;;1.70;1.50;;;8.10;99.90;;;;;;5023882;28;20140;-59
2022/05/05 02:39:47;;;;;;;2.15;1.73;;;8.00;99.90;;;;;;5026325;28;20045;-58
2022/05/05 02:42:15;;;;;;;2.38;1.77;;;8.10;99.90;;;;;;5025602;28;20084;-58
2022/05/05 02:44:43;;;;;;;1.63;1.42;;;8.00;99.90;;;;;;5024933;28;20101;-58
2022/05/05 02:47:09;;;;;;;2.00;1.70;;;8.10;99.90;;;;;;5015782;28;20068;-58
2022/05/05 02:49:36;;;;;;;2.00;1.63;;;8.10;99.90;;;;;;5006612;28;20042;-58
2022/05/05 02:52:07;;;;;;;1.77;1.52;;;8.00;99.90;;;;;;5007041;28;20061;-58
2022/05/05 02:54:52;;;;;;;1.58;1.40;;;8.00;99.90;;;;;;5023958;28;20543;-58
2022/05/05 02:57:20;;;;;;;2.00;1.73;;;8.00;99.90;;;;;;5024181;28;20136;-58
2022/05/05 02:59:47;;;;;;;1.60;1.42;;;8.00;99.90;;;;;;5026072;28;20079;-58
2022/05/05 03:02:14;;;;;;;2.17;1.60;;;8.00;99.90;;;;;;5045870;28;20475;-58
2022/05/05 03:04:41;;;;;;;2.35;1.95;;;8.00;99.90;;;;;;5045599;28;20041;-59
2022/05/05 03:07:08;;;;;;;2.10;1.60;;;8.00;99.90;;;;;;5045134;28;20475;-58
2022/05/05 03:09:34;;;;;;;1.73;1.52;;;7.90;99.90;;;;;;5046045;28;20120;-58
2022/05/05 03:12:01;;;;;;;1.85;1.65;;;7.90;99.90;;;;;;5045009;28;20132;-58
2022/05/05 03:14:28;;;;;;;2.20;1.75;;;7.90;99.90;;;;;;5045250;28;20571;-58
2022/05/05 03:16:54;;;;;;;2.10;1.63;;;7.80;99.90;;;;;;5027577;28;20048;-59
2022/05/05 03:19:21;;;;;;;1.83;1.40;;;7.80;99.90;;;;;;5044571;28;20135;-58
2022/05/05 03:21:48;;;;;;;1.77;1.60;;;7.80;99.90;;;;;;5045119;28;20468;-58
2022/05/05 03:24:14;;;;;;;2.08;1.73;;;7.70;99.90;;;;;;5045123;28;20047;-58
2022/05/05 03:26:41;;;;;;;1.80;1.55;;;7.70;99.90;;;;;;5045438;28;20893;-58
2022/05/05 03:29:08;;;;;;;1.98;1.63;;;7.70;99.90;;;;;;5045185;28;20070;-58
2022/05/05 03:31:34;;;;;;;1.85;1.65;;;7.70;99.90;;;;;;5045988;28;20057;-59
2022/05/05 03:34:01;;;;;;;1.75;1.40;;;7.70;99.90;;;;;;5035094;28;20080;-58
2022/05/05 03:36:28;;;;;;;1.98;1.60;;;7.70;99.90;;;;;;5039893;28;20128;-59
2022/05/05 03:38:55;;;;;;;2.05;1.67;;;7.70;99.90;;;;;;5028459;28;20132;-59
2022/05/05 03:41:22;;;;;;;2.20;1.75;;;7.70;99.90;;;;;;5041981;28;20055;-60
2022/05/05 03:43:48;;;;;;;1.83;1.52;;;7.60;99.90;;;;;;5036619;28;20132;-59
2022/05/05 03:46:15;;;;;;;1.80;1.48;;;7.60;99.90;;;;;;5024913;28;20121;-57
2022/05/05 03:48:42;;;;;;;1.80;1.50;;;7.60;99.90;;;;;;5028011;28;20053;-59
2022/05/05 03:51:09;;;;;;;1.90;1.50;;;7.60;99.90;;;;;;5026242;28;20132;-58
2022/05/05 03:53:36;;;;;;;1.88;1.55;;;7.50;99.90;;;;;;5037923;28;20045;-59
2022/05/05 03:56:04;;;;;;;1.88;1.50;;;7.50;99.90;;;;;;5026660;28;20638;-59
2022/05/05 03:58:31;;;;;;;1.60;1.50;;;7.50;99.90;;;;;;5008225;28;20148;-58
2022/05/05 04:00:58;;;;;;;1.70;1.30;;;7.40;99.90;;;;;;5026173;28;20128;-59
2022/05/05 04:03:31;;;;;;;2.22;1.63;;;7.40;99.90;;;;;;5032920;28;20075;-58
2022/05/05 04:06:06;;;;;;;1.67;1.30;;;7.30;99.90;;;;;;5043927;28;20048;-60
2022/05/05 04:08:33;;;;;;;1.75;1.50;;;7.40;99.90;;;;;;5026335;28;20059;-58
2022/05/05 04:11:00;;;;;;;1.60;1.38;;;7.40;99.90;;;;;;5044889;28;20120;-58
2022/05/05 04:13:27;;;;;;;2.30;1.90;;;7.30;99.90;;;;;;5043818;28;20041;-58
2022/05/05 04:15:54;;;;;;;1.85;1.52;;;7.30;99.90;;;;;;5025752;28;20123;-58
2022/05/05 04:18:20;;;;;;;1.63;1.38;;;7.20;99.90;;;;;;5036153;28;20590;-58
2022/05/05 04:20:47;;;;;;;1.80;1.60;;;7.30;99.90;;;;;;5043620;28;20076;-58
2022/05/05 04:23:14;;;;;;;2.05;1.85;;;7.20;99.90;;;;;;5026695;28;20073;-58
2022/05/05 04:26:01;;;;;;;2.17;1.88;;;7.20;99.90;;;;;;5026066;28;20041;-59
2022/05/05 04:28:27;;;;;;;1.73;1.50;;;7.20;99.90;;;;;;5024960;28;20147;-58
2022/05/05 04:30:54;;;;;;;2.22;1.80;;;7.20;99.90;;;;;;5025718;28;20120;-58
2022/05/05 04:33:21;;;;;;;1.67;1.40;;;7.20;99.90;;;;;;4997789;28;20424;-57
2022/05/05 04:35:48;;;;;;;1.58;1.40;;;7.20;99.90;;;;;;5043131;28;20043;-58
2022/05/05 04:38:14;;;;;;;2.20;1.88;;;7.10;99.90;;;;;;5025727;28;20198;-59
2022/05/05 04:40:41;;;;;;;2.53;2.20;;;7.10;99.90;;;;;;5025982;28;20517;-58
2022/05/05 04:43:08;;;;;;;2.05;1.73;;;7.10;99.90;;;;;;5028689;28;20059;-58
2022/05/05 04:45:35;;;;;;;2.38;1.70;;;7.10;99.90;;;;;;5043969;28;20055;-59
2022/05/05 04:48:02;;;;;;;2.13;1.77;;;7.10;99.90;;;;;;5040338;28;20049;-58
2022/05/05 04:50:29;;;;;;;1.55;1.35;;;7.10;99.90;;;;;;5041444;28;20077;-58
2022/05/05 04:52:55;;;;;;;1.90;1.50;;;7.20;99.90;;;;;;5041704;28;20212;-58
2022/05/05 04:55:22;;;;;;;2.10;1.67;;;7.10;99.90;;;;;;5029877;28;20160;-58
2022/05/05 04:57:49;;;;;;;2.50;1.80;;;7.20;99.90;;;;;;5042018;28;20491;-58
2022/05/05 05:00:16;;;;;;;2.75;2.13;;;7.20;99.90;;;;;;5032822;28;20489;-58
2022/05/05 05:02:43;;;;;;;1.77;1.33;;;7.20;99.90;;;;;;5027628;28;20080;-58
2022/05/05 05:05:10;;;;;;;1.95;1.58;;;7.20;99.90;;;;;;5038452;28;20052;-59
2022/05/05 05:07:37;;;;;;;2.30;1.60;;;7.20;99.90;;;;;;5044765;28;20041;-58
2022/05/05 05:10:04;;;;;;;2.13;1.85;;;7.20;99.90;;;;;;5020497;28;20045;-58
2022/05/05 05:12:31;;;;;;;2.00;1.70;;;7.30;99.90;;;;;;5033363;28;20452;-58
2022/05/05 05:14:58;;;;;;;2.35;1.98;;;7.40;99.90;;;;;;5037745;28;20515;-58
2022/05/05 05:17:25;;;;;;;3.58;1.92;;;7.40;99.90;;;;;;5017147;28;20133;-58
2022/05/05 05:19:51;;;;;;;2.85;2.25;;;7.50;99.90;;;;;;5033632;28;20077;-58
2022/05/05 05:22:18;;;;;;;2.03;1.83;;;7.50;99.90;;;;;;5035820;28;20131;-58
2022/05/05 05:24:45;;;;;;;2.15;1.92;;;7.50;99.90;;;;;;5032132;28;20516;-58
2022/05/05 05:27:12;;;;;;;2.00;1.80;;;7.60;99.90;;;;;;5035510;28;20137;-58
2022/05/05 05:29:39;;;;;;;2.03;1.73;;;7.70;99.90;;;;;;5036858;28;20088;-56
2022/05/05 05:32:06;;;;;;;2.10;1.70;;;7.80;99.90;;;;;;5033561;28;20060;-58
2022/05/05 05:34:33;;;;;;;2.85;2.30;;;7.80;99.90;;;;;;5036996;28;20131;-58
2022/05/05 05:37:00;;;;;;;3.70;2.40;;;7.90;99.90;;;;;;5043255;28;20135;-57
2022/05/05 05:39:26;;;;;;;2.60;2.00;;;7.90;99.90;;;;;;5018729;28;20112;-58
2022/05/05 05:41:54;;;;;;;2.17;1.83;;;8.00;99.90;;;;;;5042943;28;20080;-59
2022/05/05 05:44:20;;;;;;;2.15;1.90;;;8.10;99.90;;;;;;5045014;28;20057;-58
2022/05/05 05:46:47;;;;;;;2.58;2.08;;;8.30;99.90;;;;;;5039860;28;20132;-58
2022/05/05 05:49:14;;;;;;;2.17;1.90;;;8.40;99.90;;;;;;5038274;28;20053;-57
2022/05/05 05:51:42;;;;;;;2.53;2.03;;;8.50;99.90;;;;;;5037704;28;20481;-59
2022/05/05 05:54:09;;;;;;;2.67;2.05;;;8.70;99.90;;;;;;5033773;28;20060;-58
2022/05/05 05:56:35;;;;;;;2.40;2.10;;;8.80;99.90;;;;;;5035953;28;20079;-60
2022/05/05 05:59:02;;;;;;;2.90;2.05;;;8.90;99.90;;;;;;5040201;28;20674;-58
2022/05/05 06:04:14;;;;;;;2.08;1.83;;;9.20;99.90;;;;;;5033714;28;20511;-60
2022/05/05 06:06:41;;;;;;;2.65;2.13;;;9.30;99.90;;;;;;5030638;28;20071;-60
2022/05/05 06:09:08;;;;;;;2.28;2.00;;;9.40;99.90;;;;;;5039292;28;20053;-61
2022/05/05 06:11:35;;;;;;;3.05;2.60;;;9.50;99.90;;;;;;5038053;28;20495;-60
2022/05/05 06:14:04;;;;;;;3.00;2.70;;;9.70;99.90;;;;;;5033680;28;20049;-60
2022/05/05 06:16:31;;;;;;;3.13;2.83;;;9.80;99.90;;;;;;5040544;28;20049;-60
2022/05/05 06:18:58;;;;;;;3.05;2.75;;;9.90;99.90;;;;;;5028738;28;20044;-60
2022/05/05 06:21:25;;;;;;;3.00;2.67;;;10.00;99.90;;;;;;5030157;28;20081;-60
2022/05/05 06:23:52;;;;;;;2.92;2.63;;;10.20;99.90;;;;;;5015279;28;20168;-61
2022/05/05 06:26:19;;;;;;;4.03;3.20;;;10.40;99.90;;;;;;5022462;28;20075;-60
2022/05/05 06:28:45;;;;;;;3.70;3.40;;;10.50;99.90;;;;;;5032044;28;20653;-60
2022/05/05 06:31:12;;;;;;;2.97;2.67;;;10.60;99.90;;;;;;5003269;28;20057;-60
2022/05/05 06:33:39;;;;;;;3.40;3.10;;;10.70;99.90;;;;;;5033923;28;20059;-60
2022/05/05 06:36:06;;;;;;;3.53;3.05;;;10.80;99.90;;;;;;5040018;28;20540;-60
2022/05/05 06:38:33;;;;;;;4.40;3.30;;;10.90;99.90;;;;;;5033853;28;20488;-60
2022/05/05 06:41:00;;;;;;;3.97;3.58;;;11.00;99.90;;;;;;5040132;28;20052;-60
2022/05/05 06:43:27;;;;;;;5.07;4.25;;;11.00;99.90;;;;;;5033918;28;20124;-60
2022/05/05 06:45:54;;;;;;;3.40;3.10;;;11.10;99.90;;;;;;5033045;28;20084;-60
2022/05/05 06:48:21;;;;;;;3.65;3.35;;;11.20;99.90;;;;;;5037551;28;20465;-60
2022/05/05 06:50:48;;;;;;;3.33;3.03;;;11.30;99.90;;;;;;5034016;28;20195;-60
2022/05/05 06:53:15;;;;;;;3.53;3.22;;;11.40;99.90;;;;;;5030138;28;20045;-60
2022/05/05 06:55:41;;;;;;;4.13;3.72;;;11.40;99.90;;;;;;5032596;28;20171;-58
2022/05/05 06:58:08;;;;;;;4.40;4.00;;;11.40;99.90;;;;;;5025289;28;20103;-59
2022/05/05 07:03:20;;;;;;;3.25;2.95;;;11.50;99.90;;;;;;5031545;28;20102;-60
2022/05/05 07:05:47;;;;;;;3.58;2.97;;;11.60;99.90;;;;;;5026925;28;20183;-60
2022/05/05 07:08:14;;;;;;;3.67;3.10;;;11.70;99.90;;;;;;5032538;28;20053;-59
2022/05/05 07:10:53;;;;;;;3.78;3.42;;;11.80;99.90;;;;;;5028153;28;20403;-58
2022/05/05 07:13:21;;;;;;;3.88;3.53;;;11.90;99.90;;;;;;5033321;28;20146;-60
2022/05/05 07:15:48;;;;;;;3.90;3.50;;;12.00;99.90;;;;;;5031201;28;20322;-60
2022/05/05 07:18:14;;;;;;;4.55;4.15;;;12.10;99.90;;;;;;5038083;28;20144;-60
2022/05/05 07:20:41;;;;;;;3.75;3.45;;;12.20;99.90;;;;;;5029097;28;20081;-60
2022/05/05 07:23:12;;;;;;;3.40;3.05;;;12.30;99.90;;;;;;5030427;28;20140;-59
2022/05/05 07:25:40;;;;;;;3.78;2.90;;;12.40;99.90;;;;;;5034352;28;20090;-60
2022/05/05 07:28:07;;;;;;;3.65;3.22;;;12.50;99.90;;;;;;5038637;28;20634;-60
2022/05/05 07:30:34;;;;;;;3.25;2.95;;;12.50;99.90;;;;;;5020910;28;20128;-60
2022/05/05 07:33:01;;;;;;;3.88;3.50;;;12.50;99.90;;;;;;5039570;28;20130;-60
2022/05/05 07:35:28;;;;;;;3.17;2.88;;;12.50;99.90;;;;;;5038938;28;20159;-60
2022/05/05 07:37:55;;;;;;;3.80;3.00;;;12.60;99.90;;;;;;5039493;28;20057;-58
2022/05/05 07:40:22;;;;;;;3.28;2.97;;;12.70;99.90;;;;;;5039393;28;20081;-59
2022/05/05 07:42:48;;;;;;;3.90;3.42;;;12.70;99.90;;;;;;5038340;28;20053;-59
2022/05/05 07:45:16;;;;;;;3.10;2.80;;;12.70;99.90;;;;;;5038289;28;20085;-58
2022/05/05 07:47:42;;;;;;;3.05;2.75;;;12.90;99.90;;;;;;5039435;28;20176;-59
2022/05/05 07:50:09;;;;;;;3.42;3.13;;;13.00;99.90;;;;;;5037929;28;20072;-59
2022/05/05 07:52:36;;;;;;;4.43;3.67;;;13.00;99.90;;;;;;5038849;28;20136;-59
2022/05/05 07:55:04;;;;;;;4.22;3.67;;;13.20;99.90;;;;;;5038008;28;20507;-59
2022/05/05 07:57:30;;;;;;;4.30;3.85;;;13.20;99.90;;;;;;5021003;28;20135;-59
2022/05/05 07:59:57;;;;;;;3.95;3.35;;;13.30;99.90;;;;;;5037716;28;20135;-59
2022/05/05 08:02:24;;;;;;;6.18;3.80;;;13.30;99.90;;;;;;5039135;28;20315;-60
2022/05/05 08:04:53;;;;;;;4.18;3.20;;;13.30;99.90;;;;;;5037838;28;20732;-58
2022/05/05 08:07:20;;;;;;;3.55;3.13;;;13.40;99.90;;;;;;5038468;28;20094;-59
2022/05/05 08:09:47;;;;;;;3.17;2.88;;;13.40;99.90;;;;;;5038449;28;20111;-58
2022/05/05 08:12:29;;;;;;;3.20;2.85;;;13.50;99.90;;;;;;5038940;28;20045;-59
2022/05/05 08:14:57;;;;;;;3.55;3.25;;;13.60;99.90;;;;;;5038434;28;20052;-59
2022/05/05 08:17:24;;;;;;;3.03;2.72;;;13.60;99.90;;;;;;5038555;28;20102;-58
2022/05/05 08:19:50;;;;;;;2.58;2.33;;;13.70;99.90;;;;;;5038775;28;20137;-58
2022/05/05 08:22:18;;;;;;;2.80;2.30;;;13.70;99.90;;;;;;5038543;28;20064;-58
2022/05/05 08:30:17;;;;;;;2.92;2.45;;;13.70;99.90;;;;;;5037962;28;20081;-57
2022/05/05 08:32:44;;;;;;;2.90;2.53;;;13.70;99.90;;;;;;5032271;28;20046;-58
2022/05/05 08:35:10;;;;;;;4.03;3.10;;;13.60;99.90;;;;;;5027499;28;20143;-57
2022/05/05 08:37:37;;;;;;;3.55;3.22;;;13.60;99.90;;;;;;5033687;28;20565;-58
2022/05/05 08:40:05;;;;;;;4.15;3.25;;;13.50;99.90;;;;;;5019198;28;20060;-58
2022/05/05 08:42:32;;;;;;;3.45;3.03;;;13.50;99.90;;;;;;5041862;28;20080;-58
2022/05/05 08:44:59;;;;;;;3.65;3.20;;;13.60;99.90;;;;;;5039554;28;20488;-58
2022/05/05 08:47:26;;;;;;;3.63;2.97;;;13.60;99.90;;;;;;5027601;28;20489;-58
2022/05/05 08:49:57;;;;;;;3.97;3.40;;;13.70;99.90;;;;;;5018481;28;20474;-58
2022/05/05 08:52:24;;;;;;;3.17;2.88;;;13.70;99.90;;;;;;5007534;28;20585;-61
2022/05/05 08:54:51;;;;;;;2.90;2.60;;;13.70;99.90;;;;;;5023248;28;20077;-58
2022/05/05 08:57:18;;;;;;;3.85;3.10;;;13.70;99.90;;;;;;5024410;28;20083;-58
2022/05/05 08:59:45;;;;;;;3.55;2.85;;;13.80;99.90;;;;;;5041195;28;20538;-57
2022/05/05 09:02:12;;;;;;;3.58;2.95;;;13.90;99.90;;;;;;5038935;28;20060;-58
2022/05/05 09:04:44;;;;;;;3.63;3.00;;;14.10;99.90;;;;;;5035464;28;20136;-58
2022/05/05 09:07:11;;;;;;;2.92;2.60;;;14.40;99.90;;;;;;5038031;28;20057;-57
2022/05/05 09:09:38;;;;;;;2.83;2.22;;;14.70;99.90;;;;;;5036761;28;20084;-58
2022/05/05 09:12:14;;;;;;;3.00;2.67;;;14.90;99.90;;;;;;5022049;28;20519;-57
2022/05/05 09:14:51;;;;;;;2.92;2.40;;;15.00;99.90;;;;;;5028759;28;20558;-58
2022/05/05 09:17:20;;;;;;;3.15;2.58;;;15.10;99.90;;;;;;5031876;28;20532;-57
2022/05/05 09:19:54;;;;;;;2.88;2.58;;;15.10;99.90;;;;;;5034899;28;20049;-57
2022/05/05 09:22:23;;;;;;;2.78;2.50;;;15.30;99.90;;;;;;5024002;28;20044;-57
2022/05/05 09:24:51;;;;;;;2.85;2.40;;;15.40;99.90;;;;;;5041553;28;20136;-57
2022/05/05 09:27:21;;;;;;;2.78;2.20;;;15.50;99.90;;;;;;5038052;28;20664;-57
2022/05/05 09:30:01;;;;;;;2.28;1.92;;;15.70;99.90;;;;;;5029594;28;20811;-58
2022/05/05 09:32:49;;;;;;;2.70;2.38;;;16.00;99.90;;;;;;5025198;28;20049;-58
2022/05/05 09:35:16;;;;;;;2.58;2.38;;;16.10;99.90;;;;;;5040987;28;20135;-57
2022/05/05 09:37:44;;;;;;;2.95;1.98;;;16.10;99.90;;;;;;5042331;28;20495;-57
2022/05/05 09:40:14;;;;;;;2.47;2.28;;;16.00;99.90;;;;;;5035041;28;20448;-58
2022/05/05 09:42:42;;;;;;;2.38;2.05;;;16.00;99.90;;;;;;5041692;28;20505;-58
2022/05/05 09:45:30;;;;;;;2.70;2.00;;;16.00;99.90;;;;;;5040843;28;20164;-58
2022/05/05 09:48:02;;;;;;;3.33;2.30;;;16.10;99.90;;;;;;5041434;28;20681;-57
2022/05/05 09:50:30;;;;;;;2.85;2.40;;;16.10;99.90;;;;;;5042262;28;20094;-58
2022/05/05 09:58:35;;;;;;;1.92;1.70;;;16.00;99.90;;;;;;5032138;28;20045;-58
2022/05/05 10:01:09;;;;;;;2.75;1.95;;;16.20;99.90;;;;;;5047177;28;20496;-58
2022/05/05 10:04:00;;;;;;;2.28;1.88;;;16.40;99.90;;;;;;5044244;28;20147;-57
2022/05/05 10:06:34;;;;;;;2.38;1.88;;;16.40;99.90;;;;;;5013959;28;20056;-58
2022/05/05 10:09:05;;;;;;;2.58;2.10;;;16.50;99.90;;;;;;5042458;28;20132;-58
2022/05/05 10:11:32;;;;;;;2.47;1.63;;;16.40;99.90;;;;;;5037795;28;20633;-57
2022/05/05 10:14:05;;;;;;;1.90;1.60;;;16.40;99.90;;;;;;5039600;28;20057;-58
2022/05/05 10:16:32;;;;;;;2.33;1.60;;;16.50;99.90;;;;;;5043027;28;20102;-58
2022/05/05 10:18:59;;;;;;;2.05;1.67;;;16.50;99.90;;;;;;5043900;28;20143;-58
2022/05/05 10:21:54;;;;;;;2.13;1.73;;;16.50;99.90;;;;;;5043797;28;20513;-58
2022/05/05 10:24:31;;;;;;;2.15;1.73;;;16.70;99.90;;;;;;5034614;28;20057;-57
2022/05/05 10:27:02;;;;;;;1.50;1.38;;;16.90;99.90;;;;;;5026231;28;20124;-58
2022/05/05 10:29:35;;;;;;;1.67;1.42;;;17.00;99.90;;;;;;5025084;28;20634;-58
2022/05/05 10:32:06;;;;;;;1.40;1.30;;;17.30;99.90;;;;;;5044564;28;20471;-58
2022/05/05 10:34:33;;;;;;;1.77;1.42;;;17.40;99.90;;;;;;5044457;28;20067;-58
2022/05/05 10:37:05;;;;;;;1.88;1.35;;;17.30;99.90;;;;;;5042475;28;20216;-58
2022/05/05 10:39:50;;;;;;;1.25;1.15;;;17.20;99.90;;;;;;5036373;28;20543;-58
2022/05/05 10:42:34;;;;;;;1.80;1.50;;;17.10;99.90;;;;;;5044983;28;20049;-58
2022/05/05 10:45:07;;;;;;;1.73;1.50;;;16.90;99.90;;;;;;5042713;28;20615;-58
2022/05/05 10:47:57;;;;;;;;;;;16.70;99.90;;;;;;5043683;28;20448;-58
2022/05/05 10:50:56;;;;;;;1.58;1.00;;;16.80;99.90;;;;;;5038645;28;19956;-58
2022/05/05 10:53:41;;;;;;;1.40;1.00;;;17.10;99.90;;;;;;5038301;28;20412;-58
2022/05/05 10:56:27;;;;;;;1.05;0.95;;;17.30;99.90;;;;;;5005375;28;20076;-58
2022/05/05 10:59:06;;;;;;;1.80;1.40;;;17.50;99.90;;;;;;5032456;28;20136;-58
2022/05/05 11:01:42;;;;;;;1.50;1.13;;;17.50;99.90;;;;;;5022097;28;20076;-58
2022/05/05 11:04:12;;;;;;;1.45;1.08;;;17.70;99.90;;;;;;5029063;28;20041;-58
2022/05/05 11:06:40;;;;;;;1.73;1.35;;;17.90;99.90;;;;;;5022152;28;20137;-58
2022/05/05 11:09:06;;;;;;;2.15;1.30;;;17.90;99.90;;;;;;5006922;28;20162;-58
2022/05/05 11:11:42;;;;;;;2.10;1.35;;;17.80;99.90;;;;;;5022388;28;20433;-58
2022/05/05 11:22:58;;;;;;;;;;;17.70;99.90;;;;;;5030214;28;20492;-58
2022/05/05 11:25:25;;;;;;;2.30;1.27;;;17.80;99.90;;;;;;5042534;28;19959;-58
2022/05/05 11:27:56;;;;;;;2.22;1.70;;;17.70;99.90;;;;;;5042554;28;20127;-58
2022/05/05 11:30:23;;;;;;;2.13;1.40;;;17.90;99.90;;;;;;5042069;28;20508;-58
2022/05/05 11:32:49;;;;;;;1.67;1.27;;;18.50;99.90;;;;;;5040084;28;20135;-58
2022/05/05 11:35:36;;;;;;;1.95;1.40;;;18.70;99.90;;;;;;5021496;28;20639;-58
2022/05/05 11:38:08;;;;;;;1.65;1.23;;;18.80;99.90;;;;;;5033876;28;20049;-58
2022/05/05 11:40:35;;;;;;;2.70;1.48;;;18.80;99.90;;;;;;5014018;28;20049;-58
2022/05/05 11:45:54;;;;;;;1.80;1.30;;;19.30;99.90;;;;;;5028279;28;20133;-58
2022/05/05 11:48:21;;;;;;;1.77;1.48;;;19.60;99.10;;;;;;5006024;28;20057;-58
2022/05/05 11:51:06;;;;;;;2.08;1.80;;;19.60;98.30;;;;;;5028137;28;20144;-58
2022/05/05 11:53:33;;;;;;;2.38;1.80;;;19.80;99.10;;;;;;5033677;28;20136;-59
2022/05/05 11:55:59;;;;;;;1.55;1.30;;;20.10;97.50;;;;;;5037245;28;20083;-59
2022/05/05 12:01:39;;;;;;;1.40;1.20;;;20.40;96.90;;;;;;5027525;28;20170;-58
2022/05/05 12:04:08;;;;;;;1.73;1.10;;;20.40;96.70;;;;;;5037420;28;20052;-58
2022/05/05 12:06:36;;;;;;;1.42;1.00;;;20.80;96.50;;;;;;5024849;28;20052;-59
2022/05/05 12:09:04;;;;;;;1.10;0.93;;;21.00;96.40;;;;;;5026459;28;20140;-58
2022/05/05 12:11:31;;;;;;;1.75;1.10;;;21.00;95.10;;;;;;5042245;28;20073;-58
2022/05/05 12:14:06;;;;;;;1.60;0.90;;;21.00;95.30;;;;;;5040938;28;20137;-58
2022/05/05 12:16:34;;;;;;;1.15;1.05;;;21.10;94.60;;;;;;5046016;28;20052;-59
2022/05/05 12:19:09;;;;;;;1.17;1.08;;;20.80;94.50;;;;;;5029914;28;20059;-59
2022/05/05 12:21:55;;;;;;;2.63;1.08;;;21.00;94.20;;;;;;5025550;28;20049;-59
2022/05/05 12:24:23;;;;;;;0.90;0.90;;;21.20;93.80;;;;;;5044035;28;20797;-59
2022/05/05 12:27:06;;;;;;;1.10;1.00;;;21.70;93.40;;;;;;5044150;28;20105;-59
2022/05/05 12:29:45;;;;;;;0.80;0.80;;;22.20;92.80;;;;;;5029450;28;20059;-59
2022/05/05 12:32:17;;;;;;;0.80;0.60;;;22.80;93.10;;;;;;5044227;28;20052;-59
2022/05/05 12:34:44;;;;;;;1.52;0.88;;;22.10;92.20;;;;;;5035520;28;20167;-58
2022/05/05 12:37:11;;;;;;;0.90;0.70;;;22.10;93.50;;;;;;4991371;28;20207;-59
2022/05/05 12:39:57;;;;;;;1.63;1.10;;;22.60;92.90;;;;;;5029160;28;20125;-59
2022/05/05 12:42:36;;;;;;;1.00;0.90;;;22.90;90.80;;;;;;5039914;28;20056;-59
2022/05/05 12:45:04;;;;;;;1.00;0.90;;;23.30;89.60;;;;;;4998838;28;20136;-59
2022/05/05 12:47:30;;;;;;;0.90;0.80;;;23.30;88.00;;;;;;5042010;28;20049;-58
2022/05/05 12:49:58;;;;;;;1.00;0.90;;;23.70;90.20;;;;;;5030788;28;20045;-58
2022/05/05 13:00:51;;;;;;;1.58;1.25;;;24.00;84.70;;;;;;5038104;28;20077;-58
2022/05/05 13:03:37;;;;;;;0.80;0.80;;;24.00;87.10;;;;;;5039419;28;20060;-59
2022/05/05 13:06:05;;;;;;;2.05;1.20;;;24.50;81.10;;;;;;4998235;28;20420;-59
2022/05/05 13:08:48;;;;;;;1.60;1.27;;;24.50;80.20;;;;;;5025606;28;20060;-60
2022/05/05 13:11:17;;;;;;;0.90;0.77;;;24.70;79.40;;;;;;5018263;28;20056;-59
2022/05/05 13:13:45;;;;;;;1.83;1.05;;;24.50;77.80;;;;;;5035897;28;20396;-60
2022/05/05 13:16:11;;;;;;;2.35;1.10;;;24.10;77.90;;;;;;5027538;28;20374;-59
2022/05/05 13:18:38;;;;;;;1.80;1.08;;;24.20;82.90;;;;;;5009835;28;20211;-59
2022/05/05 13:21:05;;;;;;;1.35;0.98;;;24.50;80.10;;;;;;5043485;28;20144;-59
2022/05/05 13:23:33;;;;;;;1.83;1.10;;;25.00;79.70;;;;;;5044896;28;20092;-59
2022/05/05 13:25:59;;;;;;;1.75;1.00;;;25.50;80.00;;;;;;5045373;28;20576;-59
2022/05/05 13:28:26;;;;;;;1.05;0.68;;;26.20;81.60;;;;;;5026027;28;20088;-60
2022/05/05 13:30:53;;;;;;;1.10;0.90;;;25.70;77.30;;;;;;5037198;28;20120;-59
2022/05/05 13:33:20;;;;;;;0.75;0.65;;;25.40;75.30;;;;;;5042718;28;20156;-59
2022/05/05 13:35:46;;;;;;;1.52;1.13;;;24.80;77.90;;;;;;5040795;28;20479;-59
2022/05/05 13:38:13;;;;;;;1.52;1.17;;;24.70;78.10;;;;;;5044832;28;20502;-60
2022/05/05 13:40:40;;;;;;;1.20;1.10;;;24.60;76.20;;;;;;5039232;28;20063;-59
2022/05/05 13:43:06;;;;;;;0.95;0.77;;;25.10;76.70;;;;;;5034476;28;20073;-60
2022/05/05 13:45:33;;;;;;;2.25;1.08;;;25.60;77.10;;;;;;5043407;28;20175;-59
2022/05/05 13:48:00;;;;;;;2.47;1.02;;;25.50;73.80;;;;;;5008696;28;20147;-59
2022/05/05 13:50:27;;;;;;;2.63;0.70;;;25.80;76.00;;;;;;5039076;28;20136;-59